Time;durP1;ratioP1;P1;durP2;ratioP2;P2;SDS_P1;SDS_P2;PMS_P1;PMS_P2;Temp;Humidity;BMP_temperature;BMP_pressure;BME280_temperature;BME280_humidity;BME280_pressure;Samples;Min_cycle;Max_cycle;Signal;HPM_P1;HPM_P2
2022/09/28 00:00:08;;;;;;;31.60;14.23;;;;;;;10.73;100.00;97211.16;2189329;81;21010;-58
2022/09/28 00:03:11;;;;;;;28.70;13.53;;;;;;;10.68;100.00;97219.08;2161652;81;21011;-58
2022/09/28 00:06:12;;;;;;;31.57;12.43;;;;;;;10.54;100.00;97217.65;2189427;81;21510;-58
2022/09/28 00:09:14;;;;;;;27.40;11.48;;;;;;;10.49;100.00;97204.95;2189168;81;21011;-58
2022/09/28 00:12:17;;;;;;;27.55;12.47;;;;;;;10.42;100.00;97209.55;2189180;81;21015;-58
2022/09/28 00:15:18;;;;;;;27.52;12.58;;;;;;;10.40;100.00;97217.05;2189022;81;20983;-58
2022/09/28 00:18:20;;;;;;;28.00;13.17;;;;;;;10.45;100.00;97208.80;2189384;81;21470;-58
2022/09/28 00:21:21;;;;;;;29.48;12.90;;;;;;;10.29;100.00;97196.64;2189169;81;21062;-58
2022/09/28 00:24:23;;;;;;;29.10;12.80;;;;;;;10.25;100.00;97208.34;2189173;81;21526;-58
2022/09/28 00:27:24;;;;;;;29.12;12.70;;;;;;;10.20;100.00;97217.42;2188955;81;20982;-58
2022/09/28 00:30:26;;;;;;;26.48;11.40;;;;;;;10.16;100.00;97209.95;2188986;81;21039;-58
2022/09/28 00:33:27;;;;;;;29.90;11.73;;;;;;;10.14;100.00;97214.02;2189423;81;21086;-58
2022/09/28 00:36:29;;;;;;;27.58;12.50;;;;;;;10.13;100.00;97216.28;2189247;81;20991;-58
2022/09/28 00:39:30;;;;;;;28.50;11.40;;;;;;;10.14;100.00;97217.10;2189234;81;20975;-58
2022/09/28 00:42:32;;;;;;;28.20;10.77;;;;;;;10.20;100.00;97212.64;2189342;81;21008;-58
2022/09/28 00:45:34;;;;;;;26.35;11.10;;;;;;;10.26;100.00;97210.83;2189017;81;21114;-58
2022/09/28 00:48:35;;;;;;;25.20;10.53;;;;;;;10.34;100.00;97215.43;2189049;81;21042;-58
2022/09/28 00:51:37;;;;;;;26.33;10.53;;;;;;;10.35;100.00;97210.55;2189284;81;21026;-58
2022/09/28 00:54:39;;;;;;;24.60;9.58;;;;;;;10.37;100.00;97202.06;2189214;81;20999;-58
2022/09/28 00:57:40;;;;;;;24.92;9.70;;;;;;;10.36;100.00;97201.73;2189218;81;20987;-58
2022/09/28 01:00:42;;;;;;;27.42;9.68;;;;;;;10.36;100.00;97202.55;2189067;81;20974;-58
2022/09/28 01:03:44;;;;;;;24.67;9.13;;;;;;;10.33;100.00;97201.94;2189487;81;20991;-62
2022/09/28 01:06:46;;;;;;;22.77;7.65;;;;;;;10.25;100.00;97208.34;2189178;81;20994;-58
2022/09/28 01:09:47;;;;;;;23.73;7.85;;;;;;;10.12;100.00;97215.92;2189185;81;21494;-58
2022/09/28 01:12:49;;;;;;;20.60;7.00;;;;;;;10.00;100.00;97211.73;2188812;81;21070;-58
2022/09/28 01:15:50;;;;;;;21.73;6.95;;;;;;;9.95;100.00;97206.05;2189013;81;21584;-58
2022/09/28 01:18:52;;;;;;;19.37;6.97;;;;;;;9.88;100.00;97214.42;2189523;81;21034;-58
2022/09/28 01:21:54;;;;;;;21.33;7.35;;;;;;;9.87;100.00;97213.25;2189084;81;21494;-58
2022/09/28 01:24:55;;;;;;;21.52;7.00;;;;;;;9.85;100.00;97212.53;2189331;81;20975;-58
2022/09/28 01:27:57;;;;;;;20.12;6.60;;;;;;;9.81;100.00;97210.66;2188869;81;21050;-58
2022/09/28 01:30:59;;;;;;;21.90;7.08;;;;;;;9.76;100.00;97206.77;2189010;81;21069;-58
2022/09/28 01:34:01;;;;;;;21.70;7.22;;;;;;;9.75;100.00;97205.09;2189269;81;21593;-58
2022/09/28 01:37:02;;;;;;;24.60;7.63;;;;;;;9.76;100.00;97204.15;2189266;81;21018;-61
2022/09/28 01:40:04;;;;;;;23.02;8.43;;;;;;;9.68;100.00;97205.61;2189292;81;20972;-58
2022/09/28 01:43:05;;;;;;;22.13;7.78;;;;;;;9.72;100.00;97202.25;2189222;81;21034;-63
2022/09/28 01:46:07;;;;;;;22.80;8.03;;;;;;;9.67;100.00;97202.64;2189047;81;21549;-58
2022/09/28 01:49:09;;;;;;;22.80;8.17;;;;;;;9.63;100.00;97195.17;2189175;81;20994;-58
2022/09/28 01:52:11;;;;;;;23.57;8.23;;;;;;;9.64;100.00;97198.97;2189062;81;20995;-58
2022/09/28 01:55:12;;;;;;;22.60;8.10;;;;;;;9.62;100.00;97200.86;2189391;81;21477;-58
2022/09/28 01:58:14;;;;;;;22.07;8.05;;;;;;;9.51;100.00;97197.84;2188819;81;21018;-58
2022/09/28 02:01:15;;;;;;;21.10;7.57;;;;;;;9.56;100.00;97204.49;2189170;81;21066;-58
2022/09/28 02:04:17;;;;;;;25.52;8.40;;;;;;;9.62;100.00;97208.72;2189258;81;21042;-58
2022/09/28 02:07:19;;;;;;;21.20;7.33;;;;;;;9.69;100.00;97205.95;2189261;81;21043;-57
2022/09/28 02:10:21;;;;;;;23.12;8.00;;;;;;;9.75;100.00;97210.33;2188726;81;21094;-58
2022/09/28 02:13:23;;;;;;;21.42;8.10;;;;;;;9.74;100.00;97212.59;2188768;81;21600;-57
2022/09/28 02:16:24;;;;;;;24.95;7.75;;;;;;;9.71;100.00;97218.45;2188815;81;21043;-58
2022/09/28 02:19:26;;;;;;;22.40;7.63;;;;;;;9.71;100.00;97213.21;2189267;81;21015;-58
2022/09/28 02:22:28;;;;;;;23.52;8.15;;;;;;;9.59;100.00;97210.78;2188663;81;21067;-58
2022/09/28 02:25:30;;;;;;;26.17;9.27;;;;;;;9.53;100.00;97221.27;2189543;81;20995;-58
2022/09/28 02:28:32;;;;;;;21.35;7.50;;;;;;;9.40;100.00;97220.14;2188944;81;21553;-58
2022/09/28 02:31:33;;;;;;;24.07;8.43;;;;;;;9.48;100.00;97216.42;2189125;81;20987;-58
2022/09/28 02:34:35;;;;;;;22.80;7.78;;;;;;;9.51;100.00;97225.78;2188830;81;21502;-58
2022/09/28 02:37:37;;;;;;;20.70;7.43;;;;;;;9.54;100.00;97226.87;2189259;81;21532;-58
2022/09/28 02:40:38;;;;;;;21.43;7.23;;;;;;;9.56;100.00;97228.05;2189263;81;20987;-58
2022/09/28 02:43:40;;;;;;;20.25;7.10;;;;;;;9.51;100.00;97233.18;2189102;81;20979;-58
2022/09/28 02:46:42;;;;;;;21.83;7.83;;;;;;;9.52;100.00;97231.38;2189227;81;20994;-58
2022/09/28 02:49:43;;;;;;;19.98;7.30;;;;;;;9.53;100.00;97234.36;2189482;81;20944;-58
2022/09/28 02:52:45;;;;;;;21.70;7.03;;;;;;;9.59;100.00;97239.57;2189355;81;21007;-58
2022/09/28 02:55:46;;;;;;;22.20;7.77;;;;;;;9.64;100.00;97234.77;2189216;81;20971;-58
2022/09/28 02:58:48;;;;;;;22.37;7.83;;;;;;;9.68;100.00;97231.80;2189239;81;20995;-58
2022/09/28 03:01:49;;;;;;;20.30;7.03;;;;;;;9.77;100.00;97231.97;2188879;81;21055;-58
2022/09/28 03:04:51;;;;;;;21.27;6.83;;;;;;;9.81;100.00;97236.00;2188838;81;21046;-58
2022/09/28 03:07:53;;;;;;;23.77;7.50;;;;;;;9.69;100.00;97238.67;2189101;81;21046;-58
2022/09/28 03:10:54;;;;;;;21.55;6.50;;;;;;;9.58;100.00;97237.90;2188677;81;22228;-58
2022/09/28 03:13:56;;;;;;;23.07;7.20;;;;;;;9.52;100.00;97241.39;2188872;81;21078;-58
2022/09/28 03:16:58;;;;;;;19.95;6.40;;;;;;;9.51;100.00;97245.41;2189053;81;21023;-58
2022/09/28 03:19:59;;;;;;;19.87;6.30;;;;;;;9.49;100.00;97236.38;2189233;81;21014;-58
2022/09/28 03:23:01;;;;;;;21.27;6.35;;;;;;;9.56;100.00;97237.21;2189241;81;21493;-57
2022/09/28 03:26:02;;;;;;;20.40;7.37;;;;;;;9.54;100.00;97237.34;2189184;81;20983;-58
2022/09/28 03:29:04;;;;;;;18.27;6.10;;;;;;;9.54;100.00;97236.03;2189233;81;20983;-58
2022/09/28 03:32:05;;;;;;;19.80;6.25;;;;;;;9.54;100.00;97240.77;2188899;81;21026;-57
2022/09/28 03:35:08;;;;;;;19.77;6.10;;;;;;;9.52;100.00;97243.16;2189226;81;22154;-58
2022/09/28 03:38:10;;;;;;;19.27;6.30;;;;;;;9.46;100.00;97242.36;2188612;81;21003;-57
2022/09/28 03:41:12;;;;;;;19.30;6.47;;;;;;;9.45;100.00;97240.69;2189069;81;20955;-58
2022/09/28 03:44:13;;;;;;;21.95;6.62;;;;;;;9.43;100.00;97242.13;2189087;81;21022;-57
2022/09/28 03:47:16;;;;;;;17.40;5.67;;;;;;;9.37;100.00;97236.09;2189067;81;20982;-58
2022/09/28 03:50:18;;;;;;;20.02;5.47;;;;;;;9.34;100.00;97231.94;2188917;81;20948;-57
2022/09/28 03:53:20;;;;;;;20.27;6.58;;;;;;;9.31;100.00;97232.19;2189337;81;21047;-57
2022/09/28 03:56:21;;;;;;;18.23;5.40;;;;;;;9.29;100.00;97224.92;2189582;81;21525;-58
2022/09/28 03:59:23;;;;;;;21.53;5.90;;;;;;;9.21;100.00;97228.66;2189072;81;21057;-57
2022/09/28 04:02:24;;;;;;;20.00;5.47;;;;;;;9.15;100.00;97221.28;2189276;81;20983;-57
2022/09/28 04:05:26;;;;;;;17.47;5.53;;;;;;;9.00;100.00;97225.48;2189254;81;21466;-58
2022/09/28 04:08:27;;;;;;;19.67;5.78;;;;;;;8.82;100.00;97219.95;2189260;81;21058;-58
2022/09/28 04:11:29;;;;;;;18.97;6.00;;;;;;;8.72;100.00;97226.02;2192537;81;21041;-58
2022/09/28 04:14:30;;;;;;;17.80;5.50;;;;;;;8.66;100.00;97232.56;2194019;81;21081;-58
2022/09/28 04:17:33;;;;;;;19.87;6.00;;;;;;;8.62;100.00;97233.30;2193850;81;21506;-57
2022/09/28 04:20:35;;;;;;;21.05;5.67;;;;;;;8.62;100.00;97234.60;2193393;81;20985;-57
2022/09/28 04:23:36;;;;;;;19.20;5.93;;;;;;;8.57;100.00;97231.50;2193746;81;21034;-57
2022/09/28 04:26:38;;;;;;;20.17;5.87;;;;;;;8.52;100.00;97240.20;2193469;81;21146;-58
2022/09/28 04:29:42;;;;;;;23.00;5.92;;;;;;;8.41;100.00;97236.24;2193285;81;21508;-58
2022/09/28 04:32:43;;;;;;;18.17;5.40;;;;;;;8.35;100.00;97231.47;2170119;81;21568;-58
2022/09/28 04:35:45;;;;;;;20.08;6.00;;;;;;;8.33;100.00;97238.97;2193592;81;21466;-58
2022/09/28 04:38:46;;;;;;;20.90;6.20;;;;;;;8.39;100.00;97242.89;2193346;81;21007;-58
2022/09/28 04:41:48;;;;;;;18.67;6.17;;;;;;;8.48;100.00;97240.08;2193674;81;21835;-57
2022/09/28 04:44:50;;;;;;;18.40;6.22;;;;;;;8.53;100.00;97247.06;2193382;81;21106;-57
2022/09/28 04:47:52;;;;;;;;;;;;;;;8.61;100.00;97250.41;2195731;81;21545;-57
2022/09/28 04:50:54;;;;;;;21.37;6.92;;;;;;;8.75;100.00;97246.23;2193523;81;20419;-58
2022/09/28 04:53:56;;;;;;;21.93;6.75;;;;;;;8.79;100.00;97248.97;2193257;81;21106;-59
2022/09/28 04:56:58;;;;;;;18.10;6.33;;;;;;;8.86;100.00;97242.75;2193430;81;21592;-57
2022/09/28 04:59:59;;;;;;;19.25;6.53;;;;;;;8.91;100.00;97247.16;2193274;81;21043;-59
2022/09/28 05:03:00;;;;;;;24.45;7.78;;;;;;;8.99;100.00;97248.69;2193269;81;21561;-58
2022/09/28 05:06:02;;;;;;;24.00;7.92;;;;;;;9.04;100.00;97247.47;2193394;81;21043;-57
2022/09/28 05:09:03;;;;;;;23.77;8.30;;;;;;;9.09;100.00;97247.95;2193296;81;21070;-57
2022/09/28 05:12:05;;;;;;;24.95;9.33;;;;;;;9.22;100.00;97250.41;2193024;81;21049;-58
2022/09/28 05:15:07;;;;;;;22.87;8.58;;;;;;;9.30;100.00;97251.94;2193274;81;21015;-58
2022/09/28 05:18:08;;;;;;;32.13;12.40;;;;;;;9.30;100.00;97248.02;2193169;81;21598;-59
2022/09/28 05:21:10;;;;;;;23.50;8.28;;;;;;;9.34;100.00;97245.02;2193222;81;21037;-62
2022/09/28 05:24:11;;;;;;;23.50;9.47;;;;;;;9.39;100.00;97243.33;2193549;81;21090;-58
2022/09/28 05:27:13;;;;;;;24.23;8.93;;;;;;;9.46;100.00;97243.67;2193415;81;21039;-63
2022/09/28 05:30:14;;;;;;;24.75;9.73;;;;;;;9.52;100.00;97249.70;2193511;81;21075;-58
2022/09/28 05:33:16;;;;;;;24.80;9.37;;;;;;;9.54;100.00;97249.94;2193421;81;21117;-58
2022/09/28 05:36:17;;;;;;;24.72;8.03;;;;;;;9.64;100.00;97244.78;2193461;81;21067;-58
2022/09/28 05:39:19;;;;;;;23.90;8.70;;;;;;;9.69;100.00;97239.16;2193509;81;21569;-62
2022/09/28 05:42:21;;;;;;;24.32;8.65;;;;;;;9.74;100.00;97242.24;2193497;81;21130;-58
2022/09/28 05:45:22;;;;;;;23.55;9.73;;;;;;;9.83;100.00;97248.50;2193346;81;21542;-58
2022/09/28 05:48:24;;;;;;;25.17;10.23;;;;;;;9.82;100.00;97248.95;2193233;81;21106;-58
2022/09/28 05:51:25;;;;;;;24.60;9.50;;;;;;;9.81;100.00;97250.40;2193415;81;21565;-58
2022/09/28 05:54:27;;;;;;;24.60;10.43;;;;;;;9.82;100.00;97252.06;2193131;81;21034;-60
2022/09/28 05:57:28;;;;;;;27.13;10.58;;;;;;;9.85;100.00;97254.42;2193443;81;21007;-58
2022/09/28 06:00:29;;;;;;;27.75;11.20;;;;;;;9.84;100.00;97252.76;2193365;81;21047;-57
2022/09/28 06:03:31;;;;;;;27.82;11.68;;;;;;;9.87;100.00;97256.45;2193224;81;21122;-57
2022/09/28 06:06:33;;;;;;;27.47;12.90;;;;;;;9.88;100.00;97251.55;2193693;81;21067;-58
2022/09/28 06:09:34;;;;;;;29.20;13.20;;;;;;;9.91;100.00;97247.85;2193628;81;21090;-58
2022/09/28 06:12:36;;;;;;;30.35;13.53;;;;;;;9.93;100.00;97252.47;2192911;81;21033;-58
2022/09/28 06:15:38;;;;;;;30.67;14.20;;;;;;;10.06;100.00;97257.87;2193480;81;21062;-58
2022/09/28 06:18:40;;;;;;;31.20;13.10;;;;;;;10.33;100.00;97256.97;2193137;81;21046;-58
2022/09/28 06:21:42;;;;;;;30.90;14.33;;;;;;;10.45;100.00;97260.39;2193486;81;21070;-58
2022/09/28 06:24:44;;;;;;;29.40;13.30;;;;;;;10.64;100.00;97260.95;2193402;81;21529;-58
2022/09/28 06:27:46;;;;;;;29.90;13.10;;;;;;;10.83;100.00;97259.72;2193464;81;21055;-57
2022/09/28 06:30:47;;;;;;;29.35;13.88;;;;;;;10.93;100.00;97263.66;2193487;81;21623;-57
2022/09/28 06:33:49;;;;;;;28.80;12.87;;;;;;;10.78;100.00;97267.14;2193606;81;21500;-59
2022/09/28 06:36:50;;;;;;;29.23;13.17;;;;;;;10.68;100.00;97261.04;2193452;81;21035;-57
2022/09/28 06:39:53;;;;;;;31.60;14.13;;;;;;;10.69;100.00;97260.91;2193266;81;21068;-62
2022/09/28 06:42:55;;;;;;;31.85;12.40;;;;;;;10.77;100.00;97263.34;2192971;81;21589;-58
2022/09/28 06:45:56;;;;;;;28.05;13.58;;;;;;;11.08;100.00;97263.63;2193100;81;21620;-58
2022/09/28 06:48:58;;;;;;;29.00;13.20;;;;;;;11.28;100.00;97267.62;2193799;81;21487;-58
2022/09/28 06:52:00;;;;;;;28.25;13.28;;;;;;;11.21;100.00;97263.38;2192999;81;21586;-58
2022/09/28 06:55:03;;;;;;;30.25;13.28;;;;;;;11.18;100.00;97268.09;2193347;81;21549;-57
2022/09/28 06:58:04;;;;;;;31.07;13.72;;;;;;;11.19;100.00;97268.41;2193211;81;21487;-58
2022/09/28 07:01:06;;;;;;;28.93;13.67;;;;;;;11.36;100.00;97266.42;2193835;81;21027;-58
2022/09/28 07:04:07;;;;;;;29.23;13.50;;;;;;;11.58;100.00;97269.79;2193458;81;21022;-58
2022/09/28 07:07:09;;;;;;;28.03;13.00;;;;;;;11.68;100.00;97265.83;2193423;81;20976;-58
2022/09/28 07:10:11;;;;;;;27.30;12.28;;;;;;;11.76;100.00;97262.84;2192593;81;21502;-58
2022/09/28 07:13:13;;;;;;;26.15;11.20;;;;;;;11.84;100.00;97263.95;2188850;81;21046;-62
2022/09/28 07:16:15;;;;;;;24.20;9.80;;;;;;;11.97;100.00;97260.59;2188591;81;20975;-62
2022/09/28 07:19:17;;;;;;;29.23;11.55;;;;;;;11.87;100.00;97258.44;2188967;81;21010;-59
2022/09/28 07:22:18;;;;;;;24.25;10.13;;;;;;;11.83;100.00;97259.19;2189100;81;21045;-62
2022/09/28 07:25:20;;;;;;;25.70;10.23;;;;;;;11.72;100.00;97264.13;2189360;81;21434;-58
2022/09/28 07:28:21;;;;;;;23.25;9.63;;;;;;;11.72;100.00;97261.49;2188815;81;21511;-58
2022/09/28 07:31:24;;;;;;;21.63;8.17;;;;;;;11.67;100.00;97269.44;2189263;81;20999;-62
2022/09/28 07:34:25;;;;;;;22.85;8.08;;;;;;;11.64;100.00;97271.86;2189148;81;20999;-62
2022/09/28 07:37:27;;;;;;;25.23;10.37;;;;;;;11.63;100.00;97270.68;2189493;81;21006;-58
2022/09/28 07:43:31;;;;;;;23.60;9.35;;;;;;;11.88;100.00;97266.17;2161924;81;21003;-62
2022/09/28 07:46:33;;;;;;;25.05;8.68;;;;;;;12.01;100.00;97268.55;2189554;81;20951;-63
2022/09/28 07:49:35;;;;;;;18.95;5.00;;;;;;;12.13;100.00;97271.34;2188957;81;21031;-62
2022/09/28 07:52:37;;;;;;;;;;;;;;;12.17;100.00;97273.69;2191985;81;21019;-61
2022/09/28 07:55:38;;;;;;;12.53;3.98;;;;;;;12.46;100.00;97266.55;2189155;81;20133;-61
2022/09/28 07:58:40;;;;;;;15.15;4.70;;;;;;;12.81;100.00;97264.20;2189601;81;20998;-62
2022/09/28 08:01:41;;;;;;;14.90;4.65;;;;;;;12.71;100.00;97264.73;2189381;81;20980;-58
2022/09/28 08:04:43;;;;;;;15.32;4.75;;;;;;;12.40;100.00;97272.39;2188927;81;21537;-58
2022/09/28 08:07:44;;;;;;;14.80;4.87;;;;;;;12.32;100.00;97270.95;2189136;81;21027;-58
2022/09/28 08:10:46;;;;;;;18.63;5.00;;;;;;;12.64;100.00;97265.33;2189895;81;21015;-58
2022/09/28 08:13:48;;;;;;;18.67;5.28;;;;;;;12.73;100.00;97264.94;2193426;81;21102;-58
2022/09/28 08:16:49;;;;;;;21.70;7.10;;;;;;;12.74;100.00;97263.13;2193602;81;21569;-58
2022/09/28 08:22:55;;;;;;;17.35;6.05;;;;;;;13.30;100.00;97261.30;2170184;81;21011;-58
2022/09/28 08:25:57;;;;;;;20.17;6.03;;;;;;;13.48;100.00;97263.48;2193396;81;21078;-61
2022/09/28 08:28:59;;;;;;;20.85;6.28;;;;;;;13.69;100.00;97256.61;2193451;81;21593;-58
2022/09/28 08:32:00;;;;;;;20.77;6.60;;;;;;;13.92;100.00;97260.09;2193644;81;21059;-58
2022/09/28 08:35:02;;;;;;;20.40;6.25;;;;;;;14.06;100.00;97260.51;2193562;81;21616;-61
2022/09/28 08:38:04;;;;;;;16.77;5.40;;;;;;;14.20;100.00;97262.59;2193234;81;21014;-58
2022/09/28 08:41:06;;;;;;;17.30;5.53;;;;;;;14.59;100.00;97254.73;2193691;81;21110;-59
2022/09/28 08:44:08;;;;;;;17.35;5.53;;;;;;;14.71;100.00;97260.94;2193475;81;21105;-59
2022/09/28 08:48:42;;;;;;;13.93;4.40;;;;;;;14.51;100.00;97260.30;2193476;81;21038;-63
2022/09/28 08:50:13;;;;;;;13.03;4.05;;;;;;;14.75;100.00;97262.75;2170492;81;20979;-63
2022/09/28 08:53:15;;;;;;;14.23;4.28;;;;;;;14.60;100.00;97261.67;2193520;81;21019;-62
2022/09/28 08:56:17;;;;;;;19.53;4.77;;;;;;;14.20;100.00;97269.17;2193769;81;21047;-59
2022/09/28 08:59:19;;;;;;;17.07;4.95;;;;;;;13.82;100.00;97275.98;2193241;81;21130;-62
2022/09/28 09:02:21;;;;;;;14.33;4.20;;;;;;;13.80;100.00;97274.47;2193722;81;21114;-62
2022/09/28 09:05:22;;;;;;;14.10;4.00;;;;;;;13.80;100.00;97274.47;2193510;81;21062;-62
2022/09/28 09:08:24;;;;;;;16.10;4.17;;;;;;;14.11;100.00;97269.61;2193559;81;22268;-60
2022/09/28 09:11:25;;;;;;;16.10;4.40;;;;;;;14.11;100.00;97269.61;2192183;81;21063;-58
2022/09/28 09:14:27;;;;;;;15.90;4.80;;;;;;;13.76;100.00;97279.20;2189008;81;21577;-58
2022/09/28 09:17:28;;;;;;;14.40;4.60;;;;;;;13.37;100.00;97276.87;2189355;81;20983;-59
2022/09/28 09:20:30;;;;;;;15.03;4.27;;;;;;;13.26;100.00;97279.20;2189175;81;21030;-62
2022/09/28 09:23:33;;;;;;;13.05;3.80;;;;;;;13.54;100.00;97283.62;2189275;81;20979;-62
2022/09/28 09:26:35;;;;;;;10.28;3.30;;;;;;;13.53;100.00;97274.88;2189040;81;21019;-59
2022/09/28 09:29:37;;;;;;;15.93;5.05;;;;;;;13.44;100.00;97282.38;2188648;81;21109;-61
2022/09/28 09:32:40;;;;;;;12.80;3.87;;;;;;;13.17;100.00;97287.51;2189365;81;21006;-62
2022/09/28 09:35:41;;;;;;;13.60;3.60;;;;;;;12.93;100.00;97278.84;2188890;81;21551;-58
2022/09/28 09:38:43;;;;;;;13.90;3.83;;;;;;;12.66;100.00;97274.39;2189184;81;20987;-58
2022/09/28 09:41:45;;;;;;;18.35;3.85;;;;;;;12.90;100.00;97272.55;2189130;81;21475;-58
2022/09/28 09:44:47;;;;;;;13.65;3.92;;;;;;;13.17;100.00;97274.81;2189003;81;21030;-58
2022/09/28 09:47:49;;;;;;;13.22;3.65;;;;;;;13.17;100.00;97277.45;2189140;81;21027;-58
2022/09/28 09:50:50;;;;;;;10.40;3.40;;;;;;;13.47;100.00;97280.76;2189143;81;21014;-62
2022/09/28 09:53:51;;;;;;;13.33;3.50;;;;;;;13.80;100.00;97281.88;2189350;81;21533;-58
2022/09/28 09:56:53;;;;;;;14.83;4.37;;;;;;;14.41;100.00;97276.73;2189057;81;21017;-61
2022/09/28 09:59:55;;;;;;;13.80;3.70;;;;;;;15.15;100.00;97280.23;2189066;81;21514;-62
2022/09/28 10:02:56;;;;;;;12.50;3.50;;;;;;;15.40;100.00;97274.51;2189152;81;20995;-60
2022/09/28 10:05:58;;;;;;;12.40;3.25;;;;;;;15.22;100.00;97279.92;2189161;81;21557;-59
2022/09/28 10:08:59;;;;;;;13.53;3.30;;;;;;;14.94;100.00;97279.33;2189261;81;21021;-61
2022/09/28 10:12:01;;;;;;;10.95;3.10;;;;;;;14.76;100.00;97278.92;2188894;81;21103;-59
2022/09/28 10:15:02;;;;;;;11.95;3.55;;;;;;;14.90;100.00;97286.25;2189257;81;20991;-62
2022/09/28 10:18:06;;;;;;;14.65;3.50;;;;;;;14.71;100.00;97279.87;2188954;81;21126;-58
2022/09/28 10:21:08;;;;;;;14.58;4.20;;;;;;;14.51;100.00;97284.05;2161949;81;21577;-60
2022/09/28 10:24:09;;;;;;;15.67;3.93;;;;;;;14.45;100.00;97286.00;2189375;81;21049;-58
2022/09/28 10:27:11;;;;;;;10.48;3.30;;;;;;;14.36;100.00;97282.45;2188892;81;21090;-59
2022/09/28 10:30:12;;;;;;;9.93;3.00;;;;;;;14.61;100.00;97285.73;2189494;81;20998;-62
2022/09/28 10:33:14;;;;;;;12.18;3.20;;;;;;;15.57;100.00;97289.43;2189073;81;21692;-62
2022/09/28 10:36:15;;;;;;;13.17;3.30;;;;;;;16.07;100.00;97289.48;2189184;81;21470;-62
2022/09/28 10:39:17;;;;;;;9.58;2.80;;;;;;;16.26;100.00;97290.47;2189004;81;21042;-60
2022/09/28 10:42:19;;;;;;;7.67;2.15;;;;;;;16.72;100.00;97283.74;2189009;81;21589;-58
2022/09/28 10:45:21;;;;;;;12.47;3.10;;;;;;;17.02;100.00;97284.82;2188969;81;21007;-62
2022/09/28 10:48:23;;;;;;;7.37;2.40;;;;;;;16.70;100.00;97279.13;2189105;81;20991;-58
2022/09/28 10:51:25;;;;;;;11.83;3.20;;;;;;;16.41;100.00;97279.20;2189040;81;20994;-63
2022/09/28 10:54:27;;;;;;;11.88;3.05;;;;;;;16.13;100.00;97274.27;2188811;81;21612;-59
2022/09/28 10:57:29;;;;;;;10.60;2.77;;;;;;;16.58;100.00;97263.61;2188629;81;21521;-58
2022/09/28 11:00:30;;;;;;;9.87;2.60;;;;;;;16.96;100.00;97256.39;2189176;81;20997;-58
2022/09/28 11:03:32;;;;;;;8.58;2.62;;;;;;;17.17;100.00;97257.60;2189195;81;21030;-58
2022/09/28 11:06:34;;;;;;;10.72;3.00;;;;;;;17.41;100.00;97242.06;2189053;81;21015;-59
2022/09/28 11:09:35;;;;;;;11.25;2.50;;;;;;;17.56;100.00;97245.62;2189036;81;21517;-63
2022/09/28 11:12:36;;;;;;;7.97;2.70;;;;;;;17.60;100.00;97241.62;2189060;81;21038;-59
2022/09/28 11:15:38;;;;;;;8.17;2.73;;;;;;;17.02;100.00;97245.61;2189152;81;20983;-59
2022/09/28 11:18:40;;;;;;;11.30;2.87;;;;;;;17.01;100.00;97250.09;2188756;81;21067;-58
2022/09/28 11:21:41;;;;;;;11.20;2.42;;;;;;;17.08;100.00;97245.75;2188874;81;21065;-62
2022/09/28 11:24:43;;;;;;;9.73;2.80;;;;;;;17.65;100.00;97243.73;2189167;81;21031;-59
2022/09/28 11:27:44;;;;;;;9.63;2.30;;;;;;;17.01;100.00;97234.67;2188659;81;21083;-63
2022/09/28 11:30:47;;;;;;;7.67;2.20;;;;;;;17.08;100.00;97241.77;2189213;81;20963;-61
2022/09/28 11:33:48;;;;;;;10.53;2.62;;;;;;;17.83;100.00;97236.81;2188807;81;21078;-58
2022/09/28 11:36:50;;;;;;;10.15;2.20;;;;;;;18.32;100.00;97243.02;2188949;81;21501;-62
2022/09/28 11:39:51;;;;;;;6.75;2.17;;;;;;;18.61;100.00;97241.89;2188947;81;20987;-58
2022/09/28 11:42:53;;;;;;;6.00;1.85;;;;;;;18.18;100.00;97243.30;2188942;81;20994;-59
2022/09/28 11:45:54;;;;;;;10.60;2.42;;;;;;;17.77;100.00;97250.28;2189237;81;21067;-63
2022/09/28 11:48:56;;;;;;;9.55;2.65;;;;;;;17.14;100.00;97237.61;2188908;81;21561;-60
2022/09/28 11:51:57;;;;;;;7.08;2.50;;;;;;;16.61;100.00;97239.95;2189031;81;21054;-58
2022/09/28 11:54:59;;;;;;;5.45;1.50;;;;;;;17.17;100.00;97234.61;2188886;81;21018;-59
2022/09/28 11:58:01;;;;;;;10.30;2.50;;;;;;;16.97;100.00;97232.89;2188859;81;21078;-62
2022/09/28 12:01:02;;;;;;;7.55;1.77;;;;;;;17.10;100.00;97231.00;2188646;81;21023;-58
2022/09/28 12:04:04;;;;;;;;;;;;;;;17.40;100.00;97235.14;2191424;81;21031;-59
2022/09/28 12:07:06;;;;;;;8.10;2.05;;;;;;;17.39;100.00;97228.99;2188908;81;20145;-59
2022/09/28 12:10:08;;;;;;;9.38;2.85;;;;;;;17.23;100.00;97223.30;2189178;81;21089;-59
2022/09/28 12:13:10;;;;;;;;;;;;;;;17.26;100.00;97221.63;2194356;81;21568;-58
2022/09/28 12:16:11;;;;;;;6.83;2.33;;;;;;;17.11;100.00;97225.53;2193353;81;20140;-58
2022/09/28 12:19:12;;;;;;;5.78;2.02;;;;;;;17.01;100.00;97224.08;2193621;81;21553;-59
2022/09/28 12:22:14;;;;;;;9.00;2.58;;;;;;;17.34;100.00;97218.59;2193488;81;21051;-59
2022/09/28 12:25:16;;;;;;;5.08;2.10;;;;;;;17.29;100.00;97219.94;2193430;81;21042;-58
2022/09/28 12:28:17;;;;;;;6.85;1.82;;;;;;;17.74;100.00;97214.00;2193598;81;21106;-59
2022/09/28 12:31:19;;;;;;;6.87;1.87;;;;;;;18.20;100.00;97211.28;2193414;81;21102;-59
2022/09/28 12:34:20;;;;;;;6.67;1.95;;;;;;;18.30;100.00;97209.21;2193567;81;21047;-58
2022/09/28 12:37:21;;;;;;;13.72;3.52;;;;;;;18.76;100.00;97188.76;2193451;81;21051;-59
2022/09/28 12:40:23;;;;;;;24.05;9.40;;;;;;;18.74;100.00;97194.77;2193688;81;21035;-59
2022/09/28 12:43:27;;;;;;;38.48;19.92;;;;;;;18.53;100.00;97194.52;2193239;81;21026;-58
2022/09/28 12:46:28;;;;;;;9.45;2.37;;;;;;;18.29;100.00;97188.16;2193309;81;21047;-59
2022/09/28 12:49:29;;;;;;;5.58;2.10;;;;;;;18.13;100.00;97184.67;2193405;81;21593;-58
2022/09/28 12:52:31;;;;;;;6.65;1.65;;;;;;;18.11;100.00;97181.87;2193514;81;21063;-59
2022/09/28 12:55:34;;;;;;;3.65;1.45;;;;;;;18.13;100.00;97171.41;2193387;81;21046;-58
2022/09/28 12:58:35;;;;;;;3.42;1.30;;;;;;;18.10;100.00;97178.41;2193424;81;21067;-59
2022/09/28 13:01:38;;;;;;;10.70;1.65;;;;;;;18.18;100.00;97176.97;2193365;81;21581;-59
2022/09/28 13:04:39;;;;;;;6.90;1.37;;;;;;;18.13;100.00;97178.04;2193328;81;21078;-59
2022/09/28 13:07:41;;;;;;;5.40;1.52;;;;;;;18.33;100.00;97173.50;2193553;81;21118;-59
2022/09/28 13:10:43;;;;;;;5.40;1.65;;;;;;;18.45;100.00;97169.39;2193541;81;21062;-59
2022/09/28 13:13:44;;;;;;;3.42;1.22;;;;;;;18.55;100.00;97164.28;2190057;81;21015;-63
2022/09/28 13:16:46;;;;;;;5.17;1.02;;;;;;;18.77;100.00;97159.88;2189153;81;20950;-59
2022/09/28 13:19:47;;;;;;;5.58;1.37;;;;;;;18.58;100.00;97154.65;2189292;81;21511;-59
2022/09/28 13:22:49;;;;;;;5.00;1.10;;;;;;;18.42;100.00;97158.30;2189030;81;21051;-58
2022/09/28 13:25:50;;;;;;;5.00;1.20;;;;;;;18.27;100.00;97156.47;2189045;81;21536;-58
2022/09/28 13:28:53;;;;;;;5.20;1.30;;;;;;;18.10;100.00;97154.53;2189085;81;20999;-58
2022/09/28 13:31:56;;;;;;;5.62;1.65;;;;;;;17.96;100.00;97164.63;2189138;81;21038;-58
2022/09/28 13:34:57;;;;;;;8.35;1.57;;;;;;;17.66;100.00;97156.58;2188927;81;21596;-58
2022/09/28 13:37:59;;;;;;;7.70;2.10;;;;;;;17.52;100.00;97160.01;2188680;81;21102;-58
2022/09/28 13:41:00;;;;;;;21.63;8.37;;;;;;;17.29;100.00;97156.86;2189155;81;20995;-58
2022/09/28 13:44:02;;;;;;;10.30;2.85;;;;;;;17.76;100.00;97149.19;2189322;81;21242;-58
2022/09/28 13:47:04;;;;;;;6.35;1.37;;;;;;;18.05;100.00;97141.48;2188996;81;21062;-59
2022/09/28 13:50:05;;;;;;;4.55;1.40;;;;;;;18.39;100.00;97135.63;2189261;81;20991;-58
2022/09/28 13:53:06;;;;;;;4.47;1.42;;;;;;;18.72;100.00;97137.87;2188977;81;21018;-58
2022/09/28 13:56:08;;;;;;;8.98;1.98;;;;;;;19.10;100.00;97140.86;2188834;81;21553;-59
2022/09/28 13:59:10;;;;;;;6.53;1.70;;;;;;;19.24;100.00;97138.64;2188661;81;21117;-58
2022/09/28 14:02:11;;;;;;;9.95;1.77;;;;;;;19.11;100.00;97137.20;2189150;81;21544;-58
2022/09/28 14:05:13;;;;;;;15.75;3.27;;;;;;;18.57;100.00;97140.53;2189033;81;21052;-59